sensor_id;sensor_type;location;lat;lon;timestamp;temperature;humidity
73121;DHT22;61307;49.628;-1.624;2023-06-01T00:02:02;19.60;55.00
73121;DHT22;61307;49.628;-1.624;2023-06-01T00:04:29;19.50;54.90
73121;DHT22;61307;49.628;-1.624;2023-06-01T00:06:56;19.60;55.00
73121;DHT22;61307;49.628;-1.624;2023-06-01T00:09:25;19.50;54.90
73121;DHT22;61307;49.628;-1.624;2023-06-01T00:11:54;19.50;54.90
73121;DHT22;61307;49.628;-1.624;2023-06-01T00:14:21;19.60;55.00
73121;DHT22;61307;49.628;-1.624;2023-06-01T00:16:48;19.60;55.00
73121;DHT22;61307;49.628;-1.624;2023-06-01T00:19:16;19.60;55.00
73121;DHT22;61307;49.628;-1.624;2023-06-01T00:21:43;19.60;54.90
73121;DHT22;61307;49.628;-1.624;2023-06-01T00:24:10;19.50;54.90
73121;DHT22;61307;49.628;-1.624;2023-06-01T00:26:37;19.60;55.00
73121;DHT22;61307;49.628;-1.624;2023-06-01T00:29:06;19.50;54.90
73121;DHT22;61307;49.628;-1.624;2023-06-01T00:31:32;19.50;54.90
73121;DHT22;61307;49.628;-1.624;2023-06-01T00:34:00;19.60;55.00
73121;DHT22;61307;49.628;-1.624;2023-06-01T00:36:27;19.50;54.90
73121;DHT22;61307;49.628;-1.624;2023-06-01T00:38:54;19.50;54.90
73121;DHT22;61307;49.628;-1.624;2023-06-01T00:41:27;19.50;54.90
73121;DHT22;61307;49.628;-1.624;2023-06-01T00:43:54;19.50;54.90
73121;DHT22;61307;49.628;-1.624;2023-06-01T00:46:23;19.50;54.90
73121;DHT22;61307;49.628;-1.624;2023-06-01T00:48:50;19.50;54.90
73121;DHT22;61307;49.628;-1.624;2023-06-01T00:51:18;19.50;54.90
73121;DHT22;61307;49.628;-1.624;2023-06-01T00:53:45;19.50;54.90
73121;DHT22;61307;49.628;-1.624;2023-06-01T00:56:13;19.50;54.90
73121;DHT22;61307;49.628;-1.624;2023-06-01T00:58:40;19.50;54.90
73121;DHT22;61307;49.628;-1.624;2023-06-01T01:01:07;19.50;54.90
73121;DHT22;61307;49.628;-1.624;2023-06-01T01:03:46;19.50;55.00
73121;DHT22;61307;49.628;-1.624;2023-06-01T01:06:23;19.50;55.00
73121;DHT22;61307;49.628;-1.624;2023-06-01T01:09:02;19.50;55.00
73121;DHT22;61307;49.628;-1.624;2023-06-01T01:11:35;19.50;54.90
73121;DHT22;61307;49.628;-1.624;2023-06-01T01:14:07;19.50;54.90
73121;DHT22;61307;49.628;-1.624;2023-06-01T01:16:42;19.40;54.80
73121;DHT22;61307;49.628;-1.624;2023-06-01T01:19:24;19.40;54.90
73121;DHT22;61307;49.628;-1.624;2023-06-01T01:22:10;19.40;54.90
73121;DHT22;61307;49.628;-1.624;2023-06-01T01:24:51;19.40;54.90
73121;DHT22;61307;49.628;-1.624;2023-06-01T01:27:26;19.40;54.90
73121;DHT22;61307;49.628;-1.624;2023-06-01T01:30:06;19.40;54.90
73121;DHT22;61307;49.628;-1.624;2023-06-01T01:32:35;19.40;54.90
73121;DHT22;61307;49.628;-1.624;2023-06-01T01:35:05;19.40;54.90
73121;DHT22;61307;49.628;-1.624;2023-06-01T01:37:34;19.40;54.90
73121;DHT22;61307;49.628;-1.624;2023-06-01T01:40:01;19.40;54.90
73121;DHT22;61307;49.628;-1.624;2023-06-01T01:42:28;19.40;54.90
73121;DHT22;61307;49.628;-1.624;2023-06-01T01:44:55;19.40;54.90
73121;DHT22;61307;49.628;-1.624;2023-06-01T01:47:31;19.40;54.90
73121;DHT22;61307;49.628;-1.624;2023-06-01T01:50:05;19.40;54.90
73121;DHT22;61307;49.628;-1.624;2023-06-01T01:52:35;19.40;54.90
73121;DHT22;61307;49.628;-1.624;2023-06-01T01:55:05;19.40;55.00
73121;DHT22;61307;49.628;-1.624;2023-06-01T01:57:34;19.30;54.80
73121;DHT22;61307;49.628;-1.624;2023-06-01T02:00:02;19.40;55.00
73121;DHT22;61307;49.628;-1.624;2023-06-01T02:02:32;19.30;54.90
73121;DHT22;61307;49.628;-1.624;2023-06-01T02:04:58;19.30;54.80
73121;DHT22;61307;49.628;-1.624;2023-06-01T02:07:25;19.40;54.90
73121;DHT22;61307;49.628;-1.624;2023-06-01T02:09:52;19.30;54.80
73121;DHT22;61307;49.628;-1.624;2023-06-01T02:12:19;19.30;54.80
73121;DHT22;61307;49.628;-1.624;2023-06-01T02:14:46;19.30;55.50
73121;DHT22;61307;49.628;-1.624;2023-06-01T02:17:13;19.30;54.90
73121;DHT22;61307;49.628;-1.624;2023-06-01T02:19:43;19.30;54.90
73121;DHT22;61307;49.628;-1.624;2023-06-01T02:22:10;19.30;54.80
73121;DHT22;61307;49.628;-1.624;2023-06-01T02:24:37;19.30;54.80
73121;DHT22;61307;49.628;-1.624;2023-06-01T02:27:05;19.30;54.90
73121;DHT22;61307;49.628;-1.624;2023-06-01T02:29:32;19.30;54.80
73121;DHT22;61307;49.628;-1.624;2023-06-01T02:31:59;19.30;54.90
73121;DHT22;61307;49.628;-1.624;2023-06-01T02:34:26;19.30;54.90
73121;DHT22;61307;49.628;-1.624;2023-06-01T02:36:54;19.30;54.90
73121;DHT22;61307;49.628;-1.624;2023-06-01T02:39:22;19.30;54.90
73121;DHT22;61307;49.628;-1.624;2023-06-01T02:41:50;19.30;55.50
73121;DHT22;61307;49.628;-1.624;2023-06-01T02:44:17;19.30;55.00
73121;DHT22;61307;49.628;-1.624;2023-06-01T02:46:44;19.30;55.00
73121;DHT22;61307;49.628;-1.624;2023-06-01T02:49:11;19.30;55.00
73121;DHT22;61307;49.628;-1.624;2023-06-01T02:51:38;19.30;55.00
73121;DHT22;61307;49.628;-1.624;2023-06-01T02:54:07;19.30;55.00
73121;DHT22;61307;49.628;-1.624;2023-06-01T02:56:34;19.30;54.90
73121;DHT22;61307;49.628;-1.624;2023-06-01T02:59:01;19.30;54.90
73121;DHT22;61307;49.628;-1.624;2023-06-01T03:01:28;19.20;54.90
73121;DHT22;61307;49.628;-1.624;2023-06-01T03:04:01;19.20;54.90
73121;DHT22;61307;49.628;-1.624;2023-06-01T03:06:29;19.30;55.00
73121;DHT22;61307;49.628;-1.624;2023-06-01T03:08:57;19.30;55.00
73121;DHT22;61307;49.628;-1.624;2023-06-01T03:11:27;19.30;55.00
73121;DHT22;61307;49.628;-1.624;2023-06-01T03:13:54;19.30;55.00
73121;DHT22;61307;49.628;-1.624;2023-06-01T03:16:22;19.30;55.00
73121;DHT22;61307;49.628;-1.624;2023-06-01T03:18:49;19.20;54.90
73121;DHT22;61307;49.628;-1.624;2023-06-01T03:21:17;19.30;55.00
73121;DHT22;61307;49.628;-1.624;2023-06-01T03:23:44;19.20;54.90
73121;DHT22;61307;49.628;-1.624;2023-06-01T03:26:11;19.20;54.90
73121;DHT22;61307;49.628;-1.624;2023-06-01T03:28:41;19.20;54.90
73121;DHT22;61307;49.628;-1.624;2023-06-01T03:31:08;19.20;54.90
73121;DHT22;61307;49.628;-1.624;2023-06-01T03:33:37;19.20;55.50
73121;DHT22;61307;49.628;-1.624;2023-06-01T03:36:04;19.20;54.90
73121;DHT22;61307;49.628;-1.624;2023-06-01T03:38:32;19.20;54.90
73121;DHT22;61307;49.628;-1.624;2023-06-01T03:41:00;19.20;54.90
73121;DHT22;61307;49.628;-1.624;2023-06-01T03:43:27;19.20;55.00
73121;DHT22;61307;49.628;-1.624;2023-06-01T03:45:56;19.20;55.00
73121;DHT22;61307;49.628;-1.624;2023-06-01T03:48:23;19.20;55.00
73121;DHT22;61307;49.628;-1.624;2023-06-01T03:50:50;19.20;55.00
73121;DHT22;61307;49.628;-1.624;2023-06-01T03:53:17;19.20;55.00
73121;DHT22;61307;49.628;-1.624;2023-06-01T03:55:44;19.10;54.80
73121;DHT22;61307;49.628;-1.624;2023-06-01T03:58:14;19.20;55.00
73121;DHT22;61307;49.628;-1.624;2023-06-01T04:00:41;19.20;54.90
73121;DHT22;61307;49.628;-1.624;2023-06-01T04:03:10;19.20;54.90
73121;DHT22;61307;49.628;-1.624;2023-06-01T04:05:37;19.20;54.90
73121;DHT22;61307;49.628;-1.624;2023-06-01T04:08:05;19.20;54.90
73121;DHT22;61307;49.628;-1.624;2023-06-01T04:10:32;19.20;54.90
73121;DHT22;61307;49.628;-1.624;2023-06-01T04:12:59;19.20;55.00
73121;DHT22;61307;49.628;-1.624;2023-06-01T04:15:26;19.20;54.90
73121;DHT22;61307;49.628;-1.624;2023-06-01T04:17:53;19.20;55.50
73121;DHT22;61307;49.628;-1.624;2023-06-01T04:20:22;19.10;54.90
73121;DHT22;61307;49.628;-1.624;2023-06-01T04:22:50;19.10;54.80
73121;DHT22;61307;49.628;-1.624;2023-06-01T04:25:17;19.20;55.00
73121;DHT22;61307;49.628;-1.624;2023-06-01T04:27:45;19.20;55.00
73121;DHT22;61307;49.628;-1.624;2023-06-01T04:30:13;19.10;54.80
73121;DHT22;61307;49.628;-1.624;2023-06-01T04:32:41;19.10;54.90
73121;DHT22;61307;49.628;-1.624;2023-06-01T04:35:10;19.10;54.80
73121;DHT22;61307;49.628;-1.624;2023-06-01T04:37:40;19.10;54.80
73121;DHT22;61307;49.628;-1.624;2023-06-01T04:40:08;19.10;54.80
73121;DHT22;61307;49.628;-1.624;2023-06-01T04:42:37;19.10;54.80
73121;DHT22;61307;49.628;-1.624;2023-06-01T04:45:07;19.10;54.80
73121;DHT22;61307;49.628;-1.624;2023-06-01T04:47:35;19.10;54.90
73121;DHT22;61307;49.628;-1.624;2023-06-01T04:50:04;19.10;54.80
73121;DHT22;61307;49.628;-1.624;2023-06-01T04:52:31;19.10;54.80
73121;DHT22;61307;49.628;-1.624;2023-06-01T04:55:00;19.10;54.80
73121;DHT22;61307;49.628;-1.624;2023-06-01T04:57:27;19.10;55.50
73121;DHT22;61307;49.628;-1.624;2023-06-01T04:59:54;19.10;54.90
73121;DHT22;61307;49.628;-1.624;2023-06-01T05:02:22;19.10;54.90
73121;DHT22;61307;49.628;-1.624;2023-06-01T05:04:49;19.10;54.90
73121;DHT22;61307;49.628;-1.624;2023-06-01T05:07:17;19.10;54.80
73121;DHT22;61307;49.628;-1.624;2023-06-01T05:09:44;19.10;54.80
73121;DHT22;61307;49.628;-1.624;2023-06-01T05:12:13;19.10;54.80
73121;DHT22;61307;49.628;-1.624;2023-06-01T05:14:40;19.10;54.90
73121;DHT22;61307;49.628;-1.624;2023-06-01T05:17:07;19.10;54.80
73121;DHT22;61307;49.628;-1.624;2023-06-01T05:19:34;19.10;54.90
73121;DHT22;61307;49.628;-1.624;2023-06-01T05:22:01;19.00;54.80
73121;DHT22;61307;49.628;-1.624;2023-06-01T05:24:28;19.10;54.90
73121;DHT22;61307;49.628;-1.624;2023-06-01T05:26:55;19.10;54.90
73121;DHT22;61307;49.628;-1.624;2023-06-01T05:29:24;19.10;54.80
73121;DHT22;61307;49.628;-1.624;2023-06-01T05:31:51;19.00;54.70
73121;DHT22;61307;49.628;-1.624;2023-06-01T05:34:18;19.10;54.80
73121;DHT22;61307;49.628;-1.624;2023-06-01T05:36:46;19.10;54.90
73121;DHT22;61307;49.628;-1.624;2023-06-01T05:39:14;19.00;54.70
73121;DHT22;61307;49.628;-1.624;2023-06-01T05:41:41;19.10;54.80
73121;DHT22;61307;49.628;-1.624;2023-06-01T05:44:08;19.00;54.80
73121;DHT22;61307;49.628;-1.624;2023-06-01T05:46:38;19.10;54.80
73121;DHT22;61307;49.628;-1.624;2023-06-01T05:49:05;19.00;54.70
73121;DHT22;61307;49.628;-1.624;2023-06-01T05:51:32;19.10;54.90
73121;DHT22;61307;49.628;-1.624;2023-06-01T05:54:02;19.00;54.80
73121;DHT22;61307;49.628;-1.624;2023-06-01T05:56:30;19.00;54.80
73121;DHT22;61307;49.628;-1.624;2023-06-01T05:58:58;19.00;54.70
73121;DHT22;61307;49.628;-1.624;2023-06-01T06:01:25;19.00;54.70
73121;DHT22;61307;49.628;-1.624;2023-06-01T06:03:54;19.00;54.70
73121;DHT22;61307;49.628;-1.624;2023-06-01T06:06:23;19.00;54.80
73121;DHT22;61307;49.628;-1.624;2023-06-01T06:08:51;19.00;54.80
73121;DHT22;61307;49.628;-1.624;2023-06-01T06:11:18;19.00;54.70
73121;DHT22;61307;49.628;-1.624;2023-06-01T06:13:48;19.00;54.80
73121;DHT22;61307;49.628;-1.624;2023-06-01T06:16:16;19.00;54.80
73121;DHT22;61307;49.628;-1.624;2023-06-01T06:18:43;19.00;54.70
73121;DHT22;61307;49.628;-1.624;2023-06-01T06:21:12;19.00;54.70
73121;DHT22;61307;49.628;-1.624;2023-06-01T06:23:39;19.00;54.70
73121;DHT22;61307;49.628;-1.624;2023-06-01T06:26:06;19.00;54.80
73121;DHT22;61307;49.628;-1.624;2023-06-01T06:28:34;19.00;54.80
73121;DHT22;61307;49.628;-1.624;2023-06-01T06:31:01;19.00;54.80
73121;DHT22;61307;49.628;-1.624;2023-06-01T06:33:28;19.00;54.80
73121;DHT22;61307;49.628;-1.624;2023-06-01T06:35:55;19.00;54.80
73121;DHT22;61307;49.628;-1.624;2023-06-01T06:38:24;19.00;54.80
73121;DHT22;61307;49.628;-1.624;2023-06-01T06:40:52;19.00;54.70
73121;DHT22;61307;49.628;-1.624;2023-06-01T06:43:19;19.00;54.80
73121;DHT22;61307;49.628;-1.624;2023-06-01T06:45:46;19.00;54.70
73121;DHT22;61307;49.628;-1.624;2023-06-01T06:48:13;19.00;54.80
73121;DHT22;61307;49.628;-1.624;2023-06-01T06:50:40;19.00;54.90
73121;DHT22;61307;49.628;-1.624;2023-06-01T06:53:10;19.00;54.90
73121;DHT22;61307;49.628;-1.624;2023-06-01T06:55:38;19.00;54.80
73121;DHT22;61307;49.628;-1.624;2023-06-01T06:58:05;19.00;55.00
73121;DHT22;61307;49.628;-1.624;2023-06-01T07:00:32;19.00;55.00
73121;DHT22;61307;49.628;-1.624;2023-06-01T07:03:00;19.00;55.00
73121;DHT22;61307;49.628;-1.624;2023-06-01T07:05:27;19.00;54.90
73121;DHT22;61307;49.628;-1.624;2023-06-01T07:07:54;19.00;55.00
73121;DHT22;61307;49.628;-1.624;2023-06-01T07:10:21;19.00;55.00
73121;DHT22;61307;49.628;-1.624;2023-06-01T07:12:50;19.00;55.20
73121;DHT22;61307;49.628;-1.624;2023-06-01T07:15:17;19.00;55.20
73121;DHT22;61307;49.628;-1.624;2023-06-01T07:17:45;19.00;55.20
73121;DHT22;61307;49.628;-1.624;2023-06-01T07:20:12;19.00;55.20
73121;DHT22;61307;49.628;-1.624;2023-06-01T07:22:40;19.00;55.30
73121;DHT22;61307;49.628;-1.624;2023-06-01T07:25:08;19.00;55.30
73121;DHT22;61307;49.628;-1.624;2023-06-01T07:27:35;19.00;55.30
73121;DHT22;61307;49.628;-1.624;2023-06-01T07:30:05;19.00;55.20
73121;DHT22;61307;49.628;-1.624;2023-06-01T07:32:34;19.00;55.40
73121;DHT22;61307;49.628;-1.624;2023-06-01T07:35:02;19.00;55.30
73121;DHT22;61307;49.628;-1.624;2023-06-01T07:37:31;19.00;55.20
73121;DHT22;61307;49.628;-1.624;2023-06-01T07:39:58;19.00;55.30
73121;DHT22;61307;49.628;-1.624;2023-06-01T07:42:26;19.00;55.50
73121;DHT22;61307;49.628;-1.624;2023-06-01T07:44:53;19.00;56.00
73121;DHT22;61307;49.628;-1.624;2023-06-01T07:47:21;19.10;55.50
73121;DHT22;61307;49.628;-1.624;2023-06-01T07:49:50;19.00;55.50
73121;DHT22;61307;49.628;-1.624;2023-06-01T07:52:17;19.00;56.30
73121;DHT22;61307;49.628;-1.624;2023-06-01T07:54:44;19.00;56.30
73121;DHT22;61307;49.628;-1.624;2023-06-01T07:57:13;19.10;55.80
73121;DHT22;61307;49.628;-1.624;2023-06-01T07:59:40;19.00;55.80
73121;DHT22;61307;49.628;-1.624;2023-06-01T08:02:07;19.00;55.80
73121;DHT22;61307;49.628;-1.624;2023-06-01T08:04:38;19.10;55.90
73121;DHT22;61307;49.628;-1.624;2023-06-01T08:07:06;19.10;55.90
73121;DHT22;61307;49.628;-1.624;2023-06-01T08:09:34;19.10;55.90
73121;DHT22;61307;49.628;-1.624;2023-06-01T08:12:03;19.10;56.60
73121;DHT22;61307;49.628;-1.624;2023-06-01T08:14:32;19.10;55.90
73121;DHT22;61307;49.628;-1.624;2023-06-01T08:17:00;19.10;56.00
73121;DHT22;61307;49.628;-1.624;2023-06-01T08:19:28;19.10;56.00
73121;DHT22;61307;49.628;-1.624;2023-06-01T08:21:57;19.10;56.10
73121;DHT22;61307;49.628;-1.624;2023-06-01T08:24:24;19.10;56.00
73121;DHT22;61307;49.628;-1.624;2023-06-01T08:26:54;19.10;56.00
73121;DHT22;61307;49.628;-1.624;2023-06-01T08:29:21;19.10;56.00
73121;DHT22;61307;49.628;-1.624;2023-06-01T08:31:48;19.20;56.10
73121;DHT22;61307;49.628;-1.624;2023-06-01T08:34:16;19.10;56.00
73121;DHT22;61307;49.628;-1.624;2023-06-01T08:36:43;19.10;56.10
73121;DHT22;61307;49.628;-1.624;2023-06-01T08:39:23;19.10;56.10
73121;DHT22;61307;49.628;-1.624;2023-06-01T08:42:03;19.10;56.10
73121;DHT22;61307;49.628;-1.624;2023-06-01T08:44:35;19.10;56.10
73121;DHT22;61307;49.628;-1.624;2023-06-01T08:47:03;19.20;56.20
73121;DHT22;61307;49.628;-1.624;2023-06-01T08:49:30;19.20;56.10
73121;DHT22;61307;49.628;-1.624;2023-06-01T08:52:00;19.20;56.20
73121;DHT22;61307;49.628;-1.624;2023-06-01T08:54:30;19.20;56.20
73121;DHT22;61307;49.628;-1.624;2023-06-01T08:56:59;19.10;56.00
73121;DHT22;61307;49.628;-1.624;2023-06-01T08:59:29;19.20;56.10
73121;DHT22;61307;49.628;-1.624;2023-06-01T09:01:57;19.20;56.20
73121;DHT22;61307;49.628;-1.624;2023-06-01T09:04:25;19.20;56.10
73121;DHT22;61307;49.628;-1.624;2023-06-01T09:06:52;19.20;56.10
73121;DHT22;61307;49.628;-1.624;2023-06-01T09:09:19;19.20;56.50
73121;DHT22;61307;49.628;-1.624;2023-06-01T09:12:15;19.20;56.20
73121;DHT22;61307;49.628;-1.624;2023-06-01T09:14:43;19.20;56.00
73121;DHT22;61307;49.628;-1.624;2023-06-01T09:17:13;19.20;56.10
73121;DHT22;61307;49.628;-1.624;2023-06-01T09:19:41;19.30;56.30
73121;DHT22;61307;49.628;-1.624;2023-06-01T09:22:10;19.20;56.40
73121;DHT22;61307;49.628;-1.624;2023-06-01T09:24:37;19.30;56.60
73121;DHT22;61307;49.628;-1.624;2023-06-01T09:27:08;19.30;57.10
73121;DHT22;61307;49.628;-1.624;2023-06-01T09:29:35;19.30;57.00
73121;DHT22;61307;49.628;-1.624;2023-06-01T09:32:02;19.30;57.20
73121;DHT22;61307;49.628;-1.624;2023-06-01T09:34:29;19.30;57.30
73121;DHT22;61307;49.628;-1.624;2023-06-01T09:37:05;19.30;57.10
73121;DHT22;61307;49.628;-1.624;2023-06-01T09:39:33;19.30;57.20
73121;DHT22;61307;49.628;-1.624;2023-06-01T09:42:01;19.30;57.20
73121;DHT22;61307;49.628;-1.624;2023-06-01T09:44:31;19.30;57.20
73121;DHT22;61307;49.628;-1.624;2023-06-01T09:47:01;19.30;57.20
73121;DHT22;61307;49.628;-1.624;2023-06-01T09:49:30;19.30;57.00
73121;DHT22;61307;49.628;-1.624;2023-06-01T09:52:09;19.30;57.10
73121;DHT22;61307;49.628;-1.624;2023-06-01T09:54:39;19.30;57.00
73121;DHT22;61307;49.628;-1.624;2023-06-01T09:57:07;19.30;57.10
73121;DHT22;61307;49.628;-1.624;2023-06-01T09:59:40;19.40;57.00
73121;DHT22;61307;49.628;-1.624;2023-06-01T10:02:14;19.30;56.90
73121;DHT22;61307;49.628;-1.624;2023-06-01T10:04:42;19.30;56.90
73121;DHT22;61307;49.628;-1.624;2023-06-01T10:07:13;19.40;57.10
73121;DHT22;61307;49.628;-1.624;2023-06-01T10:09:42;19.40;56.90
73121;DHT22;61307;49.628;-1.624;2023-06-01T10:12:10;19.40;56.90
73121;DHT22;61307;49.628;-1.624;2023-06-01T10:14:39;19.40;56.80
73121;DHT22;61307;49.628;-1.624;2023-06-01T10:17:07;19.40;56.80
73121;DHT22;61307;49.628;-1.624;2023-06-01T10:19:36;19.40;56.80
73121;DHT22;61307;49.628;-1.624;2023-06-01T10:22:04;19.40;56.90
73121;DHT22;61307;49.628;-1.624;2023-06-01T10:24:32;19.40;56.80
73121;DHT22;61307;49.628;-1.624;2023-06-01T10:27:05;19.40;56.70
73121;DHT22;61307;49.628;-1.624;2023-06-01T10:29:33;19.40;56.80
73121;DHT22;61307;49.628;-1.624;2023-06-01T10:32:02;19.40;56.80
73121;DHT22;61307;49.628;-1.624;2023-06-01T10:34:40;19.40;56.60
73121;DHT22;61307;49.628;-1.624;2023-06-01T10:37:12;19.50;56.70
73121;DHT22;61307;49.628;-1.624;2023-06-01T10:39:43;19.50;56.90
73121;DHT22;61307;49.628;-1.624;2023-06-01T10:42:36;19.50;56.60
73121;DHT22;61307;49.628;-1.624;2023-06-01T10:45:37;19.40;56.50
73121;DHT22;61307;49.628;-1.624;2023-06-01T10:48:07;19.50;56.50
73121;DHT22;61307;49.628;-1.624;2023-06-01T10:50:36;19.50;56.40
73121;DHT22;61307;49.628;-1.624;2023-06-01T10:53:28;19.50;57.10
73121;DHT22;61307;49.628;-1.624;2023-06-01T10:56:18;19.50;56.40
73121;DHT22;61307;49.628;-1.624;2023-06-01T10:58:47;19.50;56.30
73121;DHT22;61307;49.628;-1.624;2023-06-01T11:01:36;19.50;56.30
73121;DHT22;61307;49.628;-1.624;2023-06-01T11:04:05;19.50;56.30
73121;DHT22;61307;49.628;-1.624;2023-06-01T11:06:34;19.50;56.30
73121;DHT22;61307;49.628;-1.624;2023-06-01T11:09:02;19.50;56.20
73121;DHT22;61307;49.628;-1.624;2023-06-01T11:11:56;19.50;56.20
73121;DHT22;61307;49.628;-1.624;2023-06-01T11:14:25;19.50;56.10
73121;DHT22;61307;49.628;-1.624;2023-06-01T11:16:55;19.50;56.10
73121;DHT22;61307;49.628;-1.624;2023-06-01T11:19:25;19.50;56.10
73121;DHT22;61307;49.628;-1.624;2023-06-01T11:21:57;19.50;56.10
73121;DHT22;61307;49.628;-1.624;2023-06-01T11:24:31;19.50;56.00
73121;DHT22;61307;49.628;-1.624;2023-06-01T11:27:05;19.50;55.90
73121;DHT22;61307;49.628;-1.624;2023-06-01T11:29:33;19.50;56.00
73121;DHT22;61307;49.628;-1.624;2023-06-01T11:32:02;19.50;56.00
73121;DHT22;61307;49.628;-1.624;2023-06-01T11:34:33;19.60;56.00
73121;DHT22;61307;49.628;-1.624;2023-06-01T11:37:03;19.60;56.00
73121;DHT22;61307;49.628;-1.624;2023-06-01T11:39:31;19.50;55.80
73121;DHT22;61307;49.628;-1.624;2023-06-01T11:42:06;19.60;56.50
73121;DHT22;61307;49.628;-1.624;2023-06-01T11:44:38;19.50;55.80
73121;DHT22;61307;49.628;-1.624;2023-06-01T11:47:06;19.60;55.90
73121;DHT22;61307;49.628;-1.624;2023-06-01T11:49:42;19.50;55.70
73121;DHT22;61307;49.628;-1.624;2023-06-01T11:52:10;19.60;55.80
73121;DHT22;61307;49.628;-1.624;2023-06-01T11:54:38;19.60;55.80
73121;DHT22;61307;49.628;-1.624;2023-06-01T11:57:06;19.60;55.70
73121;DHT22;61307;49.628;-1.624;2023-06-01T11:59:42;19.60;55.70
73121;DHT22;61307;49.628;-1.624;2023-06-01T12:02:19;19.60;55.80
73121;DHT22;61307;49.628;-1.624;2023-06-01T12:05:00;19.60;55.80
73121;DHT22;61307;49.628;-1.624;2023-06-01T12:07:31;19.60;55.70
73121;DHT22;61307;49.628;-1.624;2023-06-01T12:09:59;19.70;55.70
73121;DHT22;61307;49.628;-1.624;2023-06-01T12:12:27;19.70;55.70
73121;DHT22;61307;49.628;-1.624;2023-06-01T12:14:59;19.70;55.80
73121;DHT22;61307;49.628;-1.624;2023-06-01T12:17:45;19.70;55.90
73121;DHT22;61307;49.628;-1.624;2023-06-01T12:20:24;19.70;55.80
73121;DHT22;61307;49.628;-1.624;2023-06-01T12:22:52;19.70;55.90
73121;DHT22;61307;49.628;-1.624;2023-06-01T12:25:21;19.70;55.90
73121;DHT22;61307;49.628;-1.624;2023-06-01T12:28:02;19.80;55.90
73121;DHT22;61307;49.628;-1.624;2023-06-01T12:30:30;19.80;55.90
73121;DHT22;61307;49.628;-1.624;2023-06-01T12:32:58;19.80;55.80
73121;DHT22;61307;49.628;-1.624;2023-06-01T12:35:27;19.80;55.80
73121;DHT22;61307;49.628;-1.624;2023-06-01T12:38:04;19.90;55.80
73121;DHT22;61307;49.628;-1.624;2023-06-01T12:40:33;19.90;55.60
73121;DHT22;61307;49.628;-1.624;2023-06-01T12:43:00;19.90;55.60
73121;DHT22;61307;49.628;-1.624;2023-06-01T12:45:34;20.00;55.60
73121;DHT22;61307;49.628;-1.624;2023-06-01T12:48:02;20.00;55.60
73121;DHT22;61307;49.628;-1.624;2023-06-01T12:50:30;20.00;55.60
73121;DHT22;61307;49.628;-1.624;2023-06-01T12:52:58;20.00;55.60
73121;DHT22;61307;49.628;-1.624;2023-06-01T12:55:25;20.00;55.60
73121;DHT22;61307;49.628;-1.624;2023-06-01T12:57:53;20.00;55.60
73121;DHT22;61307;49.628;-1.624;2023-06-01T13:00:20;20.00;55.60
73121;DHT22;61307;49.628;-1.624;2023-06-01T13:02:47;20.00;55.60
73121;DHT22;61307;49.628;-1.624;2023-06-01T13:05:16;20.00;55.60
73121;DHT22;61307;49.628;-1.624;2023-06-01T13:07:44;20.10;55.60
73121;DHT22;61307;49.628;-1.624;2023-06-01T13:10:12;20.10;55.60
73121;DHT22;61307;49.628;-1.624;2023-06-01T13:12:39;20.10;55.40
73121;DHT22;61307;49.628;-1.624;2023-06-01T13:15:08;20.20;55.40
73121;DHT22;61307;49.628;-1.624;2023-06-01T13:17:35;20.30;55.40
73121;DHT22;61307;49.628;-1.624;2023-06-01T13:20:02;20.30;55.30
73121;DHT22;61307;49.628;-1.624;2023-06-01T13:22:31;20.40;55.20
73121;DHT22;61307;49.628;-1.624;2023-06-01T13:25:00;20.50;55.10
73121;DHT22;61307;49.628;-1.624;2023-06-01T13:27:28;20.50;55.60
73121;DHT22;61307;49.628;-1.624;2023-06-01T13:29:55;20.60;54.80
73121;DHT22;61307;49.628;-1.624;2023-06-01T13:32:22;20.60;54.70
73121;DHT22;61307;49.628;-1.624;2023-06-01T13:34:49;20.70;54.60
73121;DHT22;61307;49.628;-1.624;2023-06-01T13:37:16;20.70;54.50
73121;DHT22;61307;49.628;-1.624;2023-06-01T13:39:43;20.70;54.40
73121;DHT22;61307;49.628;-1.624;2023-06-01T13:42:12;20.80;54.30
73121;DHT22;61307;49.628;-1.624;2023-06-01T13:44:39;20.80;54.30
73121;DHT22;61307;49.628;-1.624;2023-06-01T13:47:11;20.90;54.50
73121;DHT22;61307;49.628;-1.624;2023-06-01T13:49:40;21.00;54.50
73121;DHT22;61307;49.628;-1.624;2023-06-01T13:52:07;21.00;54.40
73121;DHT22;61307;49.628;-1.624;2023-06-01T13:54:34;21.10;54.20
73121;DHT22;61307;49.628;-1.624;2023-06-01T13:57:03;21.10;54.10
73121;DHT22;61307;49.628;-1.624;2023-06-01T13:59:37;21.10;54.10
73121;DHT22;61307;49.628;-1.624;2023-06-01T14:02:05;21.20;54.00
73121;DHT22;61307;49.628;-1.624;2023-06-01T14:04:32;21.30;54.70
73121;DHT22;61307;49.628;-1.624;2023-06-01T14:06:59;21.30;53.90
73121;DHT22;61307;49.628;-1.624;2023-06-01T14:09:26;21.40;53.90
73121;DHT22;61307;49.628;-1.624;2023-06-01T14:11:54;21.30;53.60
73121;DHT22;61307;49.628;-1.624;2023-06-01T14:14:21;21.30;53.60
73121;DHT22;61307;49.628;-1.624;2023-06-01T14:16:49;21.30;53.50
73121;DHT22;61307;49.628;-1.624;2023-06-01T14:19:16;21.30;53.60
73121;DHT22;61307;49.628;-1.624;2023-06-01T14:21:43;21.30;53.60
73121;DHT22;61307;49.628;-1.624;2023-06-01T14:24:11;21.30;53.50
73121;DHT22;61307;49.628;-1.624;2023-06-01T14:26:38;21.30;53.60
73121;DHT22;61307;49.628;-1.624;2023-06-01T14:29:05;21.30;53.60
73121;DHT22;61307;49.628;-1.624;2023-06-01T14:31:32;21.30;53.50
73121;DHT22;61307;49.628;-1.624;2023-06-01T14:34:01;21.30;53.60
73121;DHT22;61307;49.628;-1.624;2023-06-01T14:36:28;21.20;53.50
73121;DHT22;61307;49.628;-1.624;2023-06-01T14:38:58;21.20;53.40
73121;DHT22;61307;49.628;-1.624;2023-06-01T14:41:26;21.30;53.60
73121;DHT22;61307;49.628;-1.624;2023-06-01T14:43:53;21.20;53.40
73121;DHT22;61307;49.628;-1.624;2023-06-01T14:46:21;21.20;53.50
73121;DHT22;61307;49.628;-1.624;2023-06-01T14:48:48;21.20;53.50
73121;DHT22;61307;49.628;-1.624;2023-06-01T14:51:17;21.20;53.50
73121;DHT22;61307;49.628;-1.624;2023-06-01T14:53:44;21.20;53.40
73121;DHT22;61307;49.628;-1.624;2023-06-01T14:56:11;21.20;53.40
73121;DHT22;61307;49.628;-1.624;2023-06-01T14:58:38;21.20;53.40
73121;DHT22;61307;49.628;-1.624;2023-06-01T15:01:05;21.20;53.50
73121;DHT22;61307;49.628;-1.624;2023-06-01T15:03:33;21.20;53.50
73121;DHT22;61307;49.628;-1.624;2023-06-01T15:06:00;21.20;53.50
73121;DHT22;61307;49.628;-1.624;2023-06-01T15:08:29;21.20;53.50
73121;DHT22;61307;49.628;-1.624;2023-06-01T15:10:57;21.20;53.50
73121;DHT22;61307;49.628;-1.624;2023-06-01T15:13:24;21.20;53.50
73121;DHT22;61307;49.628;-1.624;2023-06-01T15:15:51;21.20;53.50
73121;DHT22;61307;49.628;-1.624;2023-06-01T15:18:18;21.20;53.40
73121;DHT22;61307;49.628;-1.624;2023-06-01T15:20:46;21.20;53.40
73121;DHT22;61307;49.628;-1.624;2023-06-01T15:23:17;21.20;53.40
73121;DHT22;61307;49.628;-1.624;2023-06-01T15:25:46;21.20;53.40
73121;DHT22;61307;49.628;-1.624;2023-06-01T15:28:13;21.20;53.30